sensor_id;sensor_type;location;lat;lon;timestamp;P1;durP1;ratioP1;P2;durP2;ratioP2
16957;SDS011;8595;52.542;11.974;2022-08-01T00:00:42;13.68;;;12.35;;
16957;SDS011;8595;52.542;11.974;2022-08-01T00:03:08;13.32;;;12.02;;
16957;SDS011;8595;52.542;11.974;2022-08-01T00:05:35;13.00;;;11.80;;
16957;SDS011;8595;52.542;11.974;2022-08-01T00:08:02;14.88;;;12.75;;
16957;SDS011;8595;52.542;11.974;2022-08-01T00:10:29;11.35;;;10.25;;
16957;SDS011;8595;52.542;11.974;2022-08-01T00:12:58;12.48;;;11.07;;
16957;SDS011;8595;52.542;11.974;2022-08-01T00:15:24;12.05;;;10.95;;
16957;SDS011;8595;52.542;11.974;2022-08-01T00:17:51;11.80;;;10.40;;
16957;SDS011;8595;52.542;11.974;2022-08-01T00:20:18;13.68;;;11.55;;
16957;SDS011;8595;52.542;11.974;2022-08-01T00:22:44;11.15;;;10.15;;
16957;SDS011;8595;52.542;11.974;2022-08-01T00:25:11;14.20;;;10.63;;
16957;SDS011;8595;52.542;11.974;2022-08-01T00:27:37;10.63;;;9.65;;
16957;SDS011;8595;52.542;11.974;2022-08-01T00:30:06;13.07;;;11.88;;
16957;SDS011;8595;52.542;11.974;2022-08-01T00:32:33;11.73;;;10.43;;
16957;SDS011;8595;52.542;11.974;2022-08-01T00:35:00;10.15;;;8.95;;
16957;SDS011;8595;52.542;11.974;2022-08-01T00:37:27;14.65;;;10.65;;
16957;SDS011;8595;52.542;11.974;2022-08-01T00:39:54;12.13;;;10.93;;
16957;SDS011;8595;52.542;11.974;2022-08-01T00:42:20;12.10;;;10.70;;
16957;SDS011;8595;52.542;11.974;2022-08-01T00:44:47;11.05;;;9.95;;
16957;SDS011;8595;52.542;11.974;2022-08-01T00:47:16;10.93;;;9.80;;
16957;SDS011;8595;52.542;11.974;2022-08-01T00:49:43;14.68;;;11.48;;
16957;SDS011;8595;52.542;11.974;2022-08-01T00:52:09;13.43;;;11.40;;
16957;SDS011;8595;52.542;11.974;2022-08-01T00:54:37;11.63;;;10.52;;
16957;SDS011;8595;52.542;11.974;2022-08-01T00:57:04;12.43;;;10.45;;
16957;SDS011;8595;52.542;11.974;2022-08-01T00:59:31;10.32;;;9.32;;
16957;SDS011;8595;52.542;11.974;2022-08-01T01:01:59;8.55;;;7.78;;
16957;SDS011;8595;52.542;11.974;2022-08-01T01:04:27;10.10;;;8.55;;
16957;SDS011;8595;52.542;11.974;2022-08-01T01:06:55;9.98;;;8.38;;
16957;SDS011;8595;52.542;11.974;2022-08-01T01:09:30;10.13;;;8.63;;
16957;SDS011;8595;52.542;11.974;2022-08-01T01:12:05;9.88;;;7.05;;
16957;SDS011;8595;52.542;11.974;2022-08-01T01:14:41;9.20;;;8.05;;
16957;SDS011;8595;52.542;11.974;2022-08-01T01:17:11;7.72;;;6.22;;
16957;SDS011;8595;52.542;11.974;2022-08-01T01:19:50;8.43;;;7.68;;
16957;SDS011;8595;52.542;11.974;2022-08-01T01:22:23;9.10;;;8.20;;
16957;SDS011;8595;52.542;11.974;2022-08-01T01:25:03;7.82;;;7.13;;
16957;SDS011;8595;52.542;11.974;2022-08-01T01:27:39;9.35;;;8.32;;
16957;SDS011;8595;52.542;11.974;2022-08-01T01:30:15;7.38;;;6.68;;
16957;SDS011;8595;52.542;11.974;2022-08-01T01:32:43;9.13;;;8.15;;
16957;SDS011;8595;52.542;11.974;2022-08-01T01:35:14;8.95;;;8.15;;
16957;SDS011;8595;52.542;11.974;2022-08-01T01:37:43;9.18;;;8.15;;
16957;SDS011;8595;52.542;11.974;2022-08-01T01:40:13;8.40;;;7.60;;
16957;SDS011;8595;52.542;11.974;2022-08-01T01:42:41;9.13;;;8.23;;
16957;SDS011;8595;52.542;11.974;2022-08-01T01:45:09;9.48;;;8.57;;
16957;SDS011;8595;52.542;11.974;2022-08-01T01:47:38;9.95;;;8.95;;
16957;SDS011;8595;52.542;11.974;2022-08-01T01:50:07;8.52;;;7.72;;
16957;SDS011;8595;52.542;11.974;2022-08-01T01:52:34;8.98;;;8.00;;
16957;SDS011;8595;52.542;11.974;2022-08-01T01:55:05;9.10;;;7.63;;
16957;SDS011;8595;52.542;11.974;2022-08-01T01:57:35;9.13;;;7.47;;
16957;SDS011;8595;52.542;11.974;2022-08-01T02:00:04;10.02;;;8.68;;
16957;SDS011;8595;52.542;11.974;2022-08-01T02:02:33;10.93;;;9.93;;
16957;SDS011;8595;52.542;11.974;2022-08-01T02:05:03;11.85;;;10.75;;
16957;SDS011;8595;52.542;11.974;2022-08-01T02:07:31;12.02;;;10.77;;
16957;SDS011;8595;52.542;11.974;2022-08-01T02:09:59;14.50;;;11.38;;
16957;SDS011;8595;52.542;11.974;2022-08-01T02:12:27;12.43;;;11.25;;
16957;SDS011;8595;52.542;11.974;2022-08-01T02:14:57;11.75;;;10.45;;
16957;SDS011;8595;52.542;11.974;2022-08-01T02:17:25;11.93;;;10.75;;
16957;SDS011;8595;52.542;11.974;2022-08-01T02:19:53;14.70;;;13.20;;
16957;SDS011;8595;52.542;11.974;2022-08-01T02:22:24;15.82;;;13.60;;
16957;SDS011;8595;52.542;11.974;2022-08-01T02:24:56;15.48;;;13.25;;
16957;SDS011;8595;52.542;11.974;2022-08-01T02:27:28;13.88;;;12.35;;
16957;SDS011;8595;52.542;11.974;2022-08-01T02:30:00;20.27;;;12.88;;
16957;SDS011;8595;52.542;11.974;2022-08-01T02:32:30;16.30;;;13.40;;
16957;SDS011;8595;52.542;11.974;2022-08-01T02:35:00;13.18;;;11.85;;
16957;SDS011;8595;52.542;11.974;2022-08-01T02:37:30;14.05;;;12.65;;
16957;SDS011;8595;52.542;11.974;2022-08-01T02:40:00;12.25;;;10.48;;
16957;SDS011;8595;52.542;11.974;2022-08-01T02:42:28;13.15;;;11.23;;
16957;SDS011;8595;52.542;11.974;2022-08-01T02:44:56;13.30;;;10.73;;
16957;SDS011;8595;52.542;11.974;2022-08-01T02:47:23;12.95;;;11.60;;
16957;SDS011;8595;52.542;11.974;2022-08-01T02:49:53;14.88;;;13.48;;
16957;SDS011;8595;52.542;11.974;2022-08-01T02:52:21;14.75;;;13.20;;
16957;SDS011;8595;52.542;11.974;2022-08-01T02:54:53;12.98;;;11.38;;
16957;SDS011;8595;52.542;11.974;2022-08-01T02:57:21;13.20;;;11.07;;
16957;SDS011;8595;52.542;11.974;2022-08-01T02:59:49;14.80;;;10.80;;
16957;SDS011;8595;52.542;11.974;2022-08-01T03:02:17;14.32;;;12.93;;
16957;SDS011;8595;52.542;11.974;2022-08-01T03:04:45;13.63;;;12.35;;
16957;SDS011;8595;52.542;11.974;2022-08-01T03:07:13;10.98;;;9.85;;
16957;SDS011;8595;52.542;11.974;2022-08-01T03:09:43;11.52;;;10.45;;
16957;SDS011;8595;52.542;11.974;2022-08-01T03:12:13;10.75;;;9.23;;
16957;SDS011;8595;52.542;11.974;2022-08-01T03:14:42;10.32;;;9.38;;
16957;SDS011;8595;52.542;11.974;2022-08-01T03:17:10;11.07;;;9.98;;
16957;SDS011;8595;52.542;11.974;2022-08-01T03:19:38;10.52;;;9.45;;
16957;SDS011;8595;52.542;11.974;2022-08-01T03:22:08;10.15;;;9.23;;
16957;SDS011;8595;52.542;11.974;2022-08-01T03:24:38;12.00;;;9.02;;
16957;SDS011;8595;52.542;11.974;2022-08-01T03:27:06;12.32;;;10.13;;
16957;SDS011;8595;52.542;11.974;2022-08-01T03:29:36;10.85;;;9.68;;
16957;SDS011;8595;52.542;11.974;2022-08-01T03:32:04;13.55;;;10.35;;
16957;SDS011;8595;52.542;11.974;2022-08-01T03:34:32;10.27;;;9.27;;
16957;SDS011;8595;52.542;11.974;2022-08-01T03:37:01;10.07;;;9.07;;
16957;SDS011;8595;52.542;11.974;2022-08-01T03:39:33;13.02;;;9.95;;
16957;SDS011;8595;52.542;11.974;2022-08-01T03:42:05;9.85;;;8.73;;
16957;SDS011;8595;52.542;11.974;2022-08-01T03:44:37;11.75;;;9.68;;
16957;SDS011;8595;52.542;11.974;2022-08-01T03:47:07;9.35;;;8.05;;
16957;SDS011;8595;52.542;11.974;2022-08-01T03:49:35;13.10;;;11.38;;
16957;SDS011;8595;52.542;11.974;2022-08-01T03:52:06;11.02;;;9.32;;
16957;SDS011;8595;52.542;11.974;2022-08-01T03:54:34;9.75;;;8.85;;
16957;SDS011;8595;52.542;11.974;2022-08-01T03:57:05;10.98;;;8.35;;
16957;SDS011;8595;52.542;11.974;2022-08-01T03:59:32;8.32;;;7.57;;
16957;SDS011;8595;52.542;11.974;2022-08-01T04:02:03;8.68;;;7.70;;
16957;SDS011;8595;52.542;11.974;2022-08-01T04:04:30;9.57;;;8.57;;
16957;SDS011;8595;52.542;11.974;2022-08-01T04:06:57;9.32;;;7.60;;
16957;SDS011;8595;52.542;11.974;2022-08-01T04:09:29;10.88;;;9.77;;
16957;SDS011;8595;52.542;11.974;2022-08-01T04:11:56;9.77;;;8.88;;
16957;SDS011;8595;52.542;11.974;2022-08-01T04:14:23;9.50;;;8.63;;
16957;SDS011;8595;52.542;11.974;2022-08-01T04:16:50;8.40;;;7.60;;
16957;SDS011;8595;52.542;11.974;2022-08-01T04:19:18;8.32;;;7.40;;
16957;SDS011;8595;52.542;11.974;2022-08-01T04:21:45;8.95;;;7.18;;
16957;SDS011;8595;52.542;11.974;2022-08-01T04:24:12;9.35;;;8.45;;
16957;SDS011;8595;52.542;11.974;2022-08-01T04:26:41;9.38;;;8.52;;
16957;SDS011;8595;52.542;11.974;2022-08-01T04:29:10;10.45;;;7.75;;
16957;SDS011;8595;52.542;11.974;2022-08-01T04:31:41;10.60;;;8.95;;
16957;SDS011;8595;52.542;11.974;2022-08-01T04:34:09;11.80;;;10.43;;
16957;SDS011;8595;52.542;11.974;2022-08-01T04:36:41;10.20;;;9.27;;
16957;SDS011;8595;52.542;11.974;2022-08-01T04:39:09;9.27;;;8.38;;
16957;SDS011;8595;52.542;11.974;2022-08-01T04:41:36;6.80;;;6.10;;
16957;SDS011;8595;52.542;11.974;2022-08-01T04:44:04;7.18;;;6.50;;
16957;SDS011;8595;52.542;11.974;2022-08-01T04:46:31;6.57;;;5.95;;
16957;SDS011;8595;52.542;11.974;2022-08-01T04:49:01;6.40;;;5.80;;
16957;SDS011;8595;52.542;11.974;2022-08-01T04:51:30;5.35;;;4.95;;
16957;SDS011;8595;52.542;11.974;2022-08-01T04:53:58;5.85;;;5.35;;
16957;SDS011;8595;52.542;11.974;2022-08-01T04:56:26;5.90;;;5.40;;
16957;SDS011;8595;52.542;11.974;2022-08-01T04:58:53;5.47;;;4.97;;
16957;SDS011;8595;52.542;11.974;2022-08-01T05:01:33;5.72;;;5.25;;
16957;SDS011;8595;52.542;11.974;2022-08-01T05:04:00;4.45;;;4.15;;
16957;SDS011;8595;52.542;11.974;2022-08-01T05:06:27;4.90;;;4.50;;
16957;SDS011;8595;52.542;11.974;2022-08-01T05:08:53;5.65;;;4.72;;
16957;SDS011;8595;52.542;11.974;2022-08-01T05:11:22;5.82;;;5.28;;
16957;SDS011;8595;52.542;11.974;2022-08-01T05:13:48;6.60;;;5.90;;
16957;SDS011;8595;52.542;11.974;2022-08-01T05:16:16;6.40;;;5.80;;
16957;SDS011;8595;52.542;11.974;2022-08-01T05:18:43;7.18;;;6.47;;
16957;SDS011;8595;52.542;11.974;2022-08-01T05:21:09;7.90;;;7.20;;
16957;SDS011;8595;52.542;11.974;2022-08-01T05:23:36;8.32;;;7.35;;
16957;SDS011;8595;52.542;11.974;2022-08-01T05:26:03;8.70;;;6.32;;
16957;SDS011;8595;52.542;11.974;2022-08-01T05:28:31;7.47;;;6.78;;
16957;SDS011;8595;52.542;11.974;2022-08-01T05:30:58;7.00;;;6.30;;
16957;SDS011;8595;52.542;11.974;2022-08-01T05:33:25;8.32;;;7.53;;
16957;SDS011;8595;52.542;11.974;2022-08-01T05:35:52;6.70;;;6.10;;
16957;SDS011;8595;52.542;11.974;2022-08-01T05:38:18;7.25;;;6.60;;
16957;SDS011;8595;52.542;11.974;2022-08-01T05:40:45;10.60;;;8.38;;
16957;SDS011;8595;52.542;11.974;2022-08-01T05:43:12;9.57;;;8.52;;
16957;SDS011;8595;52.542;11.974;2022-08-01T05:45:40;9.13;;;8.30;;
16957;SDS011;8595;52.542;11.974;2022-08-01T05:48:07;8.25;;;7.55;;
16957;SDS011;8595;52.542;11.974;2022-08-01T05:50:34;7.93;;;7.22;;
16957;SDS011;8595;52.542;11.974;2022-08-01T05:53:00;8.05;;;7.30;;
16957;SDS011;8595;52.542;11.974;2022-08-01T05:55:27;8.18;;;7.15;;
16957;SDS011;8595;52.542;11.974;2022-08-01T05:57:54;8.18;;;7.32;;
16957;SDS011;8595;52.542;11.974;2022-08-01T06:00:21;7.72;;;6.93;;
16957;SDS011;8595;52.542;11.974;2022-08-01T06:02:49;9.40;;;8.60;;
16957;SDS011;8595;52.542;11.974;2022-08-01T06:05:16;9.20;;;8.30;;
16957;SDS011;8595;52.542;11.974;2022-08-01T06:07:42;9.52;;;8.35;;
16957;SDS011;8595;52.542;11.974;2022-08-01T06:10:09;9.10;;;8.20;;
16957;SDS011;8595;52.542;11.974;2022-08-01T06:12:36;10.75;;;9.75;;
16957;SDS011;8595;52.542;11.974;2022-08-01T06:15:04;9.77;;;8.60;;
16957;SDS011;8595;52.542;11.974;2022-08-01T06:17:32;9.38;;;8.48;;
16957;SDS011;8595;52.542;11.974;2022-08-01T06:20:00;9.52;;;8.52;;
16957;SDS011;8595;52.542;11.974;2022-08-01T06:22:27;10.55;;;8.13;;
16957;SDS011;8595;52.542;11.974;2022-08-01T06:24:53;10.43;;;8.27;;
16957;SDS011;8595;52.542;11.974;2022-08-01T06:27:20;8.32;;;7.50;;
16957;SDS011;8595;52.542;11.974;2022-08-01T06:29:49;8.23;;;7.50;;
16957;SDS011;8595;52.542;11.974;2022-08-01T06:32:18;8.70;;;7.93;;
16957;SDS011;8595;52.542;11.974;2022-08-01T06:34:45;8.73;;;7.82;;
16957;SDS011;8595;52.542;11.974;2022-08-01T06:37:13;9.10;;;7.45;;
16957;SDS011;8595;52.542;11.974;2022-08-01T06:39:40;7.95;;;7.18;;
16957;SDS011;8595;52.542;11.974;2022-08-01T06:42:10;9.07;;;7.80;;
16957;SDS011;8595;52.542;11.974;2022-08-01T06:44:40;9.50;;;7.80;;
16957;SDS011;8595;52.542;11.974;2022-08-01T06:47:07;8.02;;;7.30;;
16957;SDS011;8595;52.542;11.974;2022-08-01T06:49:34;7.38;;;6.68;;
16957;SDS011;8595;52.542;11.974;2022-08-01T06:52:00;7.63;;;6.35;;
16957;SDS011;8595;52.542;11.974;2022-08-01T06:54:30;11.75;;;7.82;;
16957;SDS011;8595;52.542;11.974;2022-08-01T06:56:56;6.97;;;6.32;;
16957;SDS011;8595;52.542;11.974;2022-08-01T06:59:23;7.97;;;7.20;;
16957;SDS011;8595;52.542;11.974;2022-08-01T07:01:50;6.07;;;5.57;;
16957;SDS011;8595;52.542;11.974;2022-08-01T07:04:16;7.78;;;5.50;;
16957;SDS011;8595;52.542;11.974;2022-08-01T07:06:43;6.85;;;4.63;;
16957;SDS011;8595;52.542;11.974;2022-08-01T07:09:09;5.15;;;4.75;;
16957;SDS011;8595;52.542;11.974;2022-08-01T07:11:38;5.82;;;5.22;;
16957;SDS011;8595;52.542;11.974;2022-08-01T07:14:05;6.65;;;4.95;;
16957;SDS011;8595;52.542;11.974;2022-08-01T07:16:31;6.25;;;5.65;;
16957;SDS011;8595;52.542;11.974;2022-08-01T07:18:58;7.82;;;5.00;;
16957;SDS011;8595;52.542;11.974;2022-08-01T07:21:25;6.38;;;5.25;;
16957;SDS011;8595;52.542;11.974;2022-08-01T07:23:51;4.28;;;3.88;;
16957;SDS011;8595;52.542;11.974;2022-08-01T07:26:18;4.35;;;3.95;;
16957;SDS011;8595;52.542;11.974;2022-08-01T07:28:46;4.88;;;4.00;;
16957;SDS011;8595;52.542;11.974;2022-08-01T07:31:13;3.53;;;3.15;;
16957;SDS011;8595;52.542;11.974;2022-08-01T07:33:40;3.97;;;3.67;;
16957;SDS011;8595;52.542;11.974;2022-08-01T07:36:06;5.07;;;4.57;;
16957;SDS011;8595;52.542;11.974;2022-08-01T07:38:33;5.88;;;3.50;;
16957;SDS011;8595;52.542;11.974;2022-08-01T07:41:00;6.22;;;3.95;;
16957;SDS011;8595;52.542;11.974;2022-08-01T07:43:27;4.55;;;2.80;;
16957;SDS011;8595;52.542;11.974;2022-08-01T07:45:55;3.50;;;3.20;;
16957;SDS011;8595;52.542;11.974;2022-08-01T07:48:22;5.13;;;3.00;;
16957;SDS011;8595;52.542;11.974;2022-08-01T07:50:50;3.63;;;3.08;;
16957;SDS011;8595;52.542;11.974;2022-08-01T07:53:17;5.18;;;3.75;;
16957;SDS011;8595;52.542;11.974;2022-08-01T07:55:44;3.17;;;2.97;;
16957;SDS011;8595;52.542;11.974;2022-08-01T07:58:10;3.45;;;3.20;;
16957;SDS011;8595;52.542;11.974;2022-08-01T08:00:37;3.65;;;3.05;;
16957;SDS011;8595;52.542;11.974;2022-08-01T08:03:05;5.07;;;3.85;;
16957;SDS011;8595;52.542;11.974;2022-08-01T08:05:32;4.22;;;3.30;;
16957;SDS011;8595;52.542;11.974;2022-08-01T08:08:00;4.20;;;3.80;;
16957;SDS011;8595;52.542;11.974;2022-08-01T08:10:26;4.78;;;4.38;;
16957;SDS011;8595;52.542;11.974;2022-08-01T08:12:53;4.13;;;3.72;;
16957;SDS011;8595;52.542;11.974;2022-08-01T08:15:20;5.00;;;3.75;;
16957;SDS011;8595;52.542;11.974;2022-08-01T08:17:46;3.17;;;2.97;;
16957;SDS011;8595;52.542;11.974;2022-08-01T08:20:14;4.15;;;3.40;;
16957;SDS011;8595;52.542;11.974;2022-08-01T08:22:41;3.67;;;3.15;;
16957;SDS011;8595;52.542;11.974;2022-08-01T08:25:08;6.30;;;2.90;;
16957;SDS011;8595;52.542;11.974;2022-08-01T08:27:36;4.28;;;3.15;;
16957;SDS011;8595;52.542;11.974;2022-08-01T08:30:04;4.35;;;3.45;;
16957;SDS011;8595;52.542;11.974;2022-08-01T08:32:32;3.13;;;2.83;;
16957;SDS011;8595;52.542;11.974;2022-08-01T08:34:59;2.90;;;2.70;;
16957;SDS011;8595;52.542;11.974;2022-08-01T08:37:27;3.05;;;2.80;;
16957;SDS011;8595;52.542;11.974;2022-08-01T08:39:54;2.42;;;2.22;;
16957;SDS011;8595;52.542;11.974;2022-08-01T08:42:21;2.30;;;2.10;;
16957;SDS011;8595;52.542;11.974;2022-08-01T08:44:48;2.67;;;2.20;;
16957;SDS011;8595;52.542;11.974;2022-08-01T08:47:15;2.65;;;2.45;;
16957;SDS011;8595;52.542;11.974;2022-08-01T08:49:42;2.40;;;2.20;;
16957;SDS011;8595;52.542;11.974;2022-08-01T08:52:10;3.75;;;2.08;;
16957;SDS011;8595;52.542;11.974;2022-08-01T08:54:38;2.97;;;2.03;;
16957;SDS011;8595;52.542;11.974;2022-08-01T08:57:07;2.40;;;1.90;;
16957;SDS011;8595;52.542;11.974;2022-08-01T08:59:36;1.80;;;1.70;;
16957;SDS011;8595;52.542;11.974;2022-08-01T09:02:04;1.70;;;1.60;;
16957;SDS011;8595;52.542;11.974;2022-08-01T09:04:30;2.05;;;1.67;;
16957;SDS011;8595;52.542;11.974;2022-08-01T09:06:58;1.55;;;1.42;;
16957;SDS011;8595;52.542;11.974;2022-08-01T09:09:24;1.67;;;1.52;;
16957;SDS011;8595;52.542;11.974;2022-08-01T09:11:53;1.42;;;1.33;;
16957;SDS011;8595;52.542;11.974;2022-08-01T09:14:21;4.95;;;1.40;;
16957;SDS011;8595;52.542;11.974;2022-08-01T09:16:59;1.45;;;1.35;;
16957;SDS011;8595;52.542;11.974;2022-08-01T09:19:34;1.70;;;1.60;;
16957;SDS011;8595;52.542;11.974;2022-08-01T09:22:03;1.50;;;1.40;;
16957;SDS011;8595;52.542;11.974;2022-08-01T09:24:32;1.50;;;1.40;;
16957;SDS011;8595;52.542;11.974;2022-08-01T09:27:01;1.60;;;1.50;;
16957;SDS011;8595;52.542;11.974;2022-08-01T09:29:42;1.50;;;1.40;;
16957;SDS011;8595;52.542;11.974;2022-08-01T09:32:10;2.00;;;1.70;;
16957;SDS011;8595;52.542;11.974;2022-08-01T09:34:37;2.88;;;1.63;;
16957;SDS011;8595;52.542;11.974;2022-08-01T09:37:03;3.95;;;1.67;;
16957;SDS011;8595;52.542;11.974;2022-08-01T09:39:31;1.95;;;1.85;;
16957;SDS011;8595;52.542;11.974;2022-08-01T09:44:47;2.65;;;1.60;;
16957;SDS011;8595;52.542;11.974;2022-08-01T09:47:14;1.85;;;1.40;;
16957;SDS011;8595;52.542;11.974;2022-08-01T09:49:42;2.47;;;1.92;;
16957;SDS011;8595;52.542;11.974;2022-08-01T09:52:11;1.88;;;1.70;;
16957;SDS011;8595;52.542;11.974;2022-08-01T09:54:40;1.70;;;1.40;;
16957;SDS011;8595;52.542;11.974;2022-08-01T09:57:12;1.60;;;1.50;;
16957;SDS011;8595;52.542;11.974;2022-08-01T09:59:42;1.77;;;1.67;;
16957;SDS011;8595;52.542;11.974;2022-08-01T10:02:11;1.10;;;1.10;;
16957;SDS011;8595;52.542;11.974;2022-08-01T10:04:47;1.77;;;1.40;;
16957;SDS011;8595;52.542;11.974;2022-08-01T10:07:14;6.05;;;1.63;;
16957;SDS011;8595;52.542;11.974;2022-08-01T10:09:42;1.95;;;1.80;;
16957;SDS011;8595;52.542;11.974;2022-08-01T10:12:10;2.05;;;1.58;;
16957;SDS011;8595;52.542;11.974;2022-08-01T10:14:38;3.03;;;1.48;;
16957;SDS011;8595;52.542;11.974;2022-08-01T10:17:09;1.45;;;1.35;;
16957;SDS011;8595;52.542;11.974;2022-08-01T10:19:38;1.58;;;1.48;;
16957;SDS011;8595;52.542;11.974;2022-08-01T10:22:07;1.38;;;1.27;;
16957;SDS011;8595;52.542;11.974;2022-08-01T10:24:36;4.18;;;1.55;;
16957;SDS011;8595;52.542;11.974;2022-08-01T10:27:05;1.85;;;1.60;;
16957;SDS011;8595;52.542;11.974;2022-08-01T10:29:36;1.63;;;1.52;;
16957;SDS011;8595;52.542;11.974;2022-08-01T10:32:13;6.32;;;1.80;;
16957;SDS011;8595;52.542;11.974;2022-08-01T10:34:41;2.03;;;1.83;;
16957;SDS011;8595;52.542;11.974;2022-08-01T10:37:08;2.20;;;2.08;;
16957;SDS011;8595;52.542;11.974;2022-08-01T10:39:35;2.22;;;1.70;;
16957;SDS011;8595;52.542;11.974;2022-08-01T10:42:04;1.98;;;1.70;;
16957;SDS011;8595;52.542;11.974;2022-08-01T10:44:35;2.83;;;1.48;;
16957;SDS011;8595;52.542;11.974;2022-08-01T10:47:04;1.67;;;1.42;;
16957;SDS011;8595;52.542;11.974;2022-08-01T10:49:36;3.15;;;1.55;;
16957;SDS011;8595;52.542;11.974;2022-08-01T10:52:07;1.58;;;1.48;;
16957;SDS011;8595;52.542;11.974;2022-08-01T10:54:40;1.90;;;1.80;;
16957;SDS011;8595;52.542;11.974;2022-08-01T10:57:07;3.35;;;2.30;;
16957;SDS011;8595;52.542;11.974;2022-08-01T10:59:35;1.90;;;1.80;;
16957;SDS011;8595;52.542;11.974;2022-08-01T11:02:12;3.35;;;1.88;;
16957;SDS011;8595;52.542;11.974;2022-08-01T11:04:55;2.30;;;2.10;;
16957;SDS011;8595;52.542;11.974;2022-08-01T11:07:34;2.03;;;1.67;;
16957;SDS011;8595;52.542;11.974;2022-08-01T11:10:10;2.22;;;2.03;;
16957;SDS011;8595;52.542;11.974;2022-08-01T11:12:47;2.47;;;2.25;;
16957;SDS011;8595;52.542;11.974;2022-08-01T11:15:18;2.88;;;2.42;;
16957;SDS011;8595;52.542;11.974;2022-08-01T11:17:52;2.60;;;2.40;;
16957;SDS011;8595;52.542;11.974;2022-08-01T11:20:21;4.03;;;2.30;;
16957;SDS011;8595;52.542;11.974;2022-08-01T11:26:09;3.88;;;2.55;;
16957;SDS011;8595;52.542;11.974;2022-08-01T11:28:45;2.38;;;2.17;;
16957;SDS011;8595;52.542;11.974;2022-08-01T11:31:33;2.42;;;2.25;;
16957;SDS011;8595;52.542;11.974;2022-08-01T11:34:00;2.47;;;2.28;;
16957;SDS011;8595;52.542;11.974;2022-08-01T11:36:27;2.38;;;2.13;;
16957;SDS011;8595;52.542;11.974;2022-08-01T11:39:14;2.80;;;2.45;;
16957;SDS011;8595;52.542;11.974;2022-08-01T11:41:43;2.15;;;2.05;;
16957;SDS011;8595;52.542;11.974;2022-08-01T11:44:12;2.70;;;2.50;;
16957;SDS011;8595;52.542;11.974;2022-08-01T11:46:49;2.40;;;2.20;;
16957;SDS011;8595;52.542;11.974;2022-08-01T11:49:28;2.53;;;2.33;;
16957;SDS011;8595;52.542;11.974;2022-08-01T11:52:25;2.80;;;2.60;;
16957;SDS011;8595;52.542;11.974;2022-08-01T11:54:53;5.65;;;2.63;;
16957;SDS011;8595;52.542;11.974;2022-08-01T11:57:23;3.90;;;2.65;;
16957;SDS011;8595;52.542;11.974;2022-08-01T11:59:52;4.93;;;2.40;;
16957;SDS011;8595;52.542;11.974;2022-08-01T12:02:22;2.80;;;2.60;;
16957;SDS011;8595;52.542;11.974;2022-08-01T12:04:51;3.55;;;2.67;;
16957;SDS011;8595;52.542;11.974;2022-08-01T12:07:20;2.65;;;2.40;;
16957;SDS011;8595;52.542;11.974;2022-08-01T12:09:55;3.53;;;3.22;;
16957;SDS011;8595;52.542;11.974;2022-08-01T12:12:23;2.92;;;2.60;;
16957;SDS011;8595;52.542;11.974;2022-08-01T12:14:54;2.83;;;2.63;;
16957;SDS011;8595;52.542;11.974;2022-08-01T12:17:30;3.13;;;2.83;;
16957;SDS011;8595;52.542;11.974;2022-08-01T12:19:58;6.13;;;3.30;;
16957;SDS011;8595;52.542;11.974;2022-08-01T12:22:25;2.83;;;2.63;;
16957;SDS011;8595;52.542;11.974;2022-08-01T12:24:52;3.13;;;2.83;;
16957;SDS011;8595;52.542;11.974;2022-08-01T12:27:26;3.10;;;2.80;;
16957;SDS011;8595;52.542;11.974;2022-08-01T12:29:54;2.95;;;2.47;;
16957;SDS011;8595;52.542;11.974;2022-08-01T12:32:22;2.97;;;2.78;;
16957;SDS011;8595;52.542;11.974;2022-08-01T12:34:52;2.92;;;2.72;;
16957;SDS011;8595;52.542;11.974;2022-08-01T12:37:20;2.92;;;2.72;;
16957;SDS011;8595;52.542;11.974;2022-08-01T12:39:47;2.53;;;2.00;;
16957;SDS011;8595;52.542;11.974;2022-08-01T12:42:13;3.78;;;2.22;;
16957;SDS011;8595;52.542;11.974;2022-08-01T12:44:41;3.28;;;2.00;;
16957;SDS011;8595;52.542;11.974;2022-08-01T12:47:10;3.55;;;2.22;;
16957;SDS011;8595;52.542;11.974;2022-08-01T12:49:38;4.68;;;2.58;;
16957;SDS011;8595;52.542;11.974;2022-08-01T12:52:08;2.30;;;2.10;;
16957;SDS011;8595;52.542;11.974;2022-08-01T12:57:29;2.47;;;2.28;;
16957;SDS011;8595;52.542;11.974;2022-08-01T13:00:08;1.85;;;1.55;;
16957;SDS011;8595;52.542;11.974;2022-08-01T13:02:46;2.60;;;1.80;;
16957;SDS011;8595;52.542;11.974;2022-08-01T13:05:14;1.90;;;1.80;;
16957;SDS011;8595;52.542;11.974;2022-08-01T13:07:44;1.83;;;1.65;;
16957;SDS011;8595;52.542;11.974;2022-08-01T13:10:15;2.00;;;1.80;;
16957;SDS011;8595;52.542;11.974;2022-08-01T13:12:52;3.40;;;2.17;;
16957;SDS011;8595;52.542;11.974;2022-08-01T13:15:21;1.73;;;1.60;;
16957;SDS011;8595;52.542;11.974;2022-08-01T13:17:50;2.20;;;2.00;;
16957;SDS011;8595;52.542;11.974;2022-08-01T13:20:21;2.15;;;1.73;;
16957;SDS011;8595;52.542;11.974;2022-08-01T13:22:53;2.63;;;1.95;;
16957;SDS011;8595;52.542;11.974;2022-08-01T13:25:20;1.50;;;1.40;;
16957;SDS011;8595;52.542;11.974;2022-08-01T13:27:46;1.88;;;1.73;;
16957;SDS011;8595;52.542;11.974;2022-08-01T13:30:14;1.95;;;1.67;;
16957;SDS011;8595;52.542;11.974;2022-08-01T13:32:42;2.88;;;1.60;;
16957;SDS011;8595;52.542;11.974;2022-08-01T13:35:10;2.22;;;1.73;;
16957;SDS011;8595;52.542;11.974;2022-08-01T13:37:38;1.30;;;1.20;;
16957;SDS011;8595;52.542;11.974;2022-08-01T13:40:09;1.40;;;1.30;;
16957;SDS011;8595;52.542;11.974;2022-08-01T13:42:37;1.90;;;1.38;;
16957;SDS011;8595;52.542;11.974;2022-08-01T13:45:04;2.03;;;1.30;;
16957;SDS011;8595;52.542;11.974;2022-08-01T13:47:35;2.70;;;1.10;;
16957;SDS011;8595;52.542;11.974;2022-08-01T13:50:02;1.50;;;1.30;;
16957;SDS011;8595;52.542;11.974;2022-08-01T13:52:29;1.08;;;1.08;;
16957;SDS011;8595;52.542;11.974;2022-08-01T13:54:56;0.98;;;0.98;;
16957;SDS011;8595;52.542;11.974;2022-08-01T13:57:24;1.15;;;1.02;;
16957;SDS011;8595;52.542;11.974;2022-08-01T13:59:51;2.22;;;1.58;;
16957;SDS011;8595;52.542;11.974;2022-08-01T14:02:18;2.05;;;1.25;;
16957;SDS011;8595;52.542;11.974;2022-08-01T14:04:45;5.68;;;1.50;;
16957;SDS011;8595;52.542;11.974;2022-08-01T14:07:11;1.95;;;1.70;;
16957;SDS011;8595;52.542;11.974;2022-08-01T14:09:38;2.05;;;1.52;;
16957;SDS011;8595;52.542;11.974;2022-08-01T14:12:05;2.42;;;1.40;;
16957;SDS011;8595;52.542;11.974;2022-08-01T14:14:33;1.60;;;1.48;;
16957;SDS011;8595;52.542;11.974;2022-08-01T14:17:00;2.35;;;1.55;;
16957;SDS011;8595;52.542;11.974;2022-08-01T14:19:27;2.13;;;1.60;;
16957;SDS011;8595;52.542;11.974;2022-08-01T14:21:54;1.90;;;1.52;;
16957;SDS011;8595;52.542;11.974;2022-08-01T14:24:21;3.90;;;2.35;;
16957;SDS011;8595;52.542;11.974;2022-08-01T14:26:48;2.78;;;1.50;;
16957;SDS011;8595;52.542;11.974;2022-08-01T14:29:15;3.30;;;1.40;;
16957;SDS011;8595;52.542;11.974;2022-08-01T14:31:43;1.80;;;1.45;;
16957;SDS011;8595;52.542;11.974;2022-08-01T14:34:09;1.70;;;1.35;;
16957;SDS011;8595;52.542;11.974;2022-08-01T14:36:37;2.90;;;1.77;;
16957;SDS011;8595;52.542;11.974;2022-08-01T14:39:04;5.00;;;1.58;;
16957;SDS011;8595;52.542;11.974;2022-08-01T14:41:31;1.30;;;1.20;;
16957;SDS011;8595;52.542;11.974;2022-08-01T14:43:58;1.88;;;1.40;;
16957;SDS011;8595;52.542;11.974;2022-08-01T14:46:24;5.82;;;1.98;;
16957;SDS011;8595;52.542;11.974;2022-08-01T14:48:52;1.50;;;1.40;;
16957;SDS011;8595;52.542;11.974;2022-08-01T14:51:19;2.00;;;1.67;;
16957;SDS011;8595;52.542;11.974;2022-08-01T14:53:46;2.15;;;1.58;;
16957;SDS011;8595;52.542;11.974;2022-08-01T14:56:13;4.80;;;1.70;;
16957;SDS011;8595;52.542;11.974;2022-08-01T14:58:39;2.25;;;1.80;;
16957;SDS011;8595;52.542;11.974;2022-08-01T15:01:07;1.42;;;1.33;;